createdAt,value
2023-11-30T00:00:02.335Z,3.82
2023-11-30T00:02:29.038Z,3.81
2023-11-30T00:04:58.689Z,3.87
2023-11-30T00:07:56.988Z,3.84
2023-11-30T00:10:24.866Z,3.78
2023-11-30T00:12:51.543Z,3.82
2023-11-30T00:15:18.185Z,4.14
2023-11-30T00:17:44.846Z,4.18
2023-11-30T00:20:11.485Z,4.18
2023-11-30T00:22:38.139Z,4.12
2023-11-30T00:25:04.981Z,4.40
2023-11-30T00:27:31.810Z,4.32
2023-11-30T00:29:58.750Z,4.38
2023-11-30T00:32:25.647Z,4.54
2023-11-30T00:34:57.797Z,4.52
2023-11-30T00:37:24.633Z,4.40
2023-11-30T00:39:54.453Z,4.31
2023-11-30T00:42:25.418Z,4.12
2023-11-30T00:45:04.460Z,4.16
2023-11-30T00:47:39.916Z,4.05
2023-11-30T00:50:09.005Z,3.90
2023-11-30T00:55:25.989Z,4.29
2023-11-30T00:57:52.641Z,4.29
2023-11-30T01:00:19.284Z,4.25
2023-11-30T01:02:45.954Z,4.19
2023-11-30T01:05:12.613Z,4.43
2023-11-30T01:07:39.232Z,4.37
2023-11-30T01:10:05.855Z,4.26
2023-11-30T01:12:32.468Z,4.35
2023-11-30T01:14:59.133Z,4.43
2023-11-30T01:17:25.794Z,4.38
2023-11-30T01:19:52.403Z,4.44
2023-11-30T01:22:19.036Z,4.19
2023-11-30T01:24:46.861Z,4.40
2023-11-30T01:27:13.487Z,4.64
2023-11-30T01:29:40.082Z,4.44
2023-11-30T01:32:06.723Z,4.33
2023-11-30T01:34:33.349Z,4.30
2023-11-30T01:36:59.984Z,4.37
2023-11-30T01:39:26.707Z,4.30
2023-11-30T01:41:53.368Z,4.37
2023-11-30T01:44:20.025Z,4.45
2023-11-30T01:46:49.850Z,4.31
2023-11-30T01:49:19.686Z,4.53
2023-11-30T01:51:46.491Z,4.48
2023-11-30T01:54:13.418Z,4.36
2023-11-30T01:56:40.185Z,4.46
2023-11-30T01:59:06.999Z,4.63
2023-11-30T02:01:36.977Z,4.67
2023-11-30T02:04:03.952Z,4.82
2023-11-30T02:06:30.786Z,4.43
2023-11-30T02:09:00.731Z,4.36
2023-11-30T02:11:27.604Z,4.31
2023-11-30T02:13:54.497Z,4.50
2023-11-30T02:16:21.295Z,4.67
2023-11-30T02:18:51.159Z,4.65
2023-11-30T02:21:33.965Z,4.56
2023-11-30T02:24:02.388Z,4.52
2023-11-30T02:26:39.644Z,4.65
2023-11-30T02:29:08.559Z,4.65
2023-11-30T02:31:38.390Z,4.49
2023-11-30T02:34:05.228Z,4.28
2023-11-30T02:36:32.143Z,4.54
2023-11-30T02:39:00.227Z,4.45
2023-11-30T02:41:27.062Z,4.26
2023-11-30T02:43:56.865Z,4.32
2023-11-30T02:46:23.699Z,4.10
2023-11-30T02:48:50.524Z,4.20
2023-11-30T02:51:17.374Z,4.25
2023-11-30T02:53:44.232Z,4.17
2023-11-30T02:56:11.010Z,4.17
2023-11-30T02:58:39.960Z,4.05
2023-11-30T03:01:06.828Z,4.13
2023-11-30T03:03:35.675Z,4.22
2023-11-30T03:06:16.918Z,4.08
2023-11-30T03:08:46.409Z,4.12
2023-11-30T03:11:13.169Z,4.21
2023-11-30T03:13:39.986Z,4.02
2023-11-30T03:16:06.780Z,3.95
2023-11-30T03:18:33.677Z,4.02
2023-11-30T03:21:03.555Z,3.95
2023-11-30T03:23:30.368Z,4.05
2023-11-30T03:25:57.163Z,4.07
2023-11-30T03:28:26.998Z,4.17
2023-11-30T03:30:53.881Z,4.26
2023-11-30T03:33:20.689Z,4.12
2023-11-30T03:35:47.484Z,4.19
2023-11-30T03:38:14.250Z,4.19
2023-11-30T03:40:41.085Z,4.25
2023-11-30T03:43:07.865Z,4.04
2023-11-30T03:45:36.229Z,3.89
2023-11-30T03:48:06.388Z,3.87
2023-11-30T03:50:36.213Z,3.96
2023-11-30T03:53:03.122Z,3.78
2023-11-30T03:55:33.043Z,3.78
2023-11-30T03:57:59.808Z,3.82
2023-11-30T04:00:29.764Z,3.96
2023-11-30T04:02:56.696Z,3.96
2023-11-30T04:05:23.618Z,4.09
2023-11-30T04:07:53.192Z,4.12
2023-11-30T04:10:19.987Z,4.03
2023-11-30T04:12:46.748Z,3.97
2023-11-30T04:15:13.540Z,4.04
2023-11-30T04:17:40.425Z,4.11
2023-11-30T04:20:07.349Z,3.76
2023-11-30T04:22:34.204Z,3.67
2023-11-30T04:25:04.034Z,3.67
2023-11-30T04:27:30.846Z,3.45
2023-11-30T04:30:00.817Z,3.40
2023-11-30T04:32:27.623Z,3.68
2023-11-30T04:34:57.441Z,3.69
2023-11-30T04:37:24.306Z,3.52
2023-11-30T04:39:51.101Z,3.50
2023-11-30T04:42:17.914Z,3.72
2023-11-30T04:44:47.780Z,3.79
2023-11-30T04:47:14.624Z,3.94
2023-11-30T04:49:41.380Z,4.16
2023-11-30T04:52:08.199Z,3.96
2023-11-30T04:54:36.328Z,4.01
2023-11-30T04:57:04.284Z,4.16
2023-11-30T04:59:30.939Z,3.99
2023-11-30T05:01:57.728Z,4.03
2023-11-30T05:04:24.452Z,3.97
2023-11-30T05:06:53.896Z,4.03
2023-11-30T05:09:20.481Z,3.95
2023-11-30T05:11:47.094Z,3.92
2023-11-30T05:14:13.770Z,3.94
2023-11-30T05:16:40.417Z,3.96
2023-11-30T05:19:07.114Z,3.88
2023-11-30T05:21:33.784Z,3.79
2023-11-30T05:24:00.541Z,3.84
2023-11-30T05:26:27.236Z,3.80
2023-11-30T05:28:53.908Z,3.91
2023-11-30T05:31:20.629Z,3.91
2023-11-30T05:33:47.289Z,4.03
2023-11-30T05:36:13.986Z,3.85
2023-11-30T05:38:40.677Z,3.88
2023-11-30T05:41:07.345Z,3.92
2023-11-30T05:43:37.548Z,3.84
2023-11-30T05:46:04.794Z,4.03
2023-11-30T05:48:31.493Z,3.83
2023-11-30T05:50:58.169Z,3.92
2023-11-30T05:53:24.828Z,4.14
2023-11-30T05:55:51.672Z,4.08
2023-11-30T05:58:18.701Z,4.07
2023-11-30T06:00:48.539Z,4.09
2023-11-30T06:03:18.555Z,4.01
2023-11-30T06:05:48.557Z,4.10
2023-11-30T06:08:15.676Z,4.04
2023-11-30T06:10:42.598Z,4.32
2023-11-30T06:13:09.481Z,4.13
2023-11-30T06:15:40.333Z,4.24
2023-11-30T06:18:09.189Z,4.13
2023-11-30T06:20:47.907Z,4.07
2023-11-30T06:23:19.044Z,3.94
2023-11-30T06:25:45.798Z,3.92
2023-11-30T06:28:15.004Z,3.97
2023-11-30T06:30:41.765Z,3.81
2023-11-30T06:33:08.617Z,4.15
2023-11-30T06:35:35.498Z,3.94
2023-11-30T06:38:04.597Z,3.92
2023-11-30T06:40:33.440Z,3.97
2023-11-30T06:43:00.241Z,4.02
2023-11-30T06:45:26.976Z,3.79
2023-11-30T06:47:53.710Z,3.74
2023-11-30T06:53:01.304Z,3.77
2023-11-30T06:55:28.056Z,3.93
2023-11-30T06:57:54.962Z,3.88
2023-11-30T07:00:21.775Z,4.07
2023-11-30T07:02:49.685Z,3.65
2023-11-30T07:05:18.303Z,3.95
2023-11-30T07:07:45.298Z,3.96
2023-11-30T07:10:11.933Z,4.06
2023-11-30T07:12:39.838Z,4.07
2023-11-30T07:15:06.574Z,4.12
2023-11-30T07:17:33.318Z,4.19
2023-11-30T07:20:00.098Z,4.05
2023-11-30T07:22:27.045Z,4.37
2023-11-30T07:24:53.958Z,4.05
2023-11-30T07:27:21.062Z,4.00
2023-11-30T07:29:48.042Z,3.95
2023-11-30T07:32:14.859Z,4.16
2023-11-30T07:34:41.682Z,4.32
2023-11-30T07:37:08.552Z,4.48
2023-11-30T07:39:35.422Z,4.32
2023-11-30T07:42:07.485Z,4.23
2023-11-30T07:44:34.292Z,4.26
2023-11-30T07:47:01.028Z,4.52
2023-11-30T07:49:29.229Z,4.59
2023-11-30T07:51:55.992Z,4.64
2023-11-30T07:54:22.657Z,4.42
2023-11-30T07:56:49.339Z,4.50
2023-11-30T07:59:16.084Z,4.46
2023-11-30T08:01:42.706Z,4.17
2023-11-30T08:04:09.743Z,4.05
2023-11-30T08:06:36.621Z,4.31
2023-11-30T08:09:03.458Z,4.39
2023-11-30T08:11:30.324Z,4.32
2023-11-30T08:13:57.059Z,4.37
2023-11-30T08:16:23.740Z,4.38
2023-11-30T08:18:50.576Z,4.52
2023-11-30T08:21:17.303Z,4.50
2023-11-30T08:23:43.952Z,4.52
2023-11-30T08:26:10.688Z,4.51
2023-11-30T08:28:37.366Z,4.53
2023-11-30T08:31:03.986Z,4.68
2023-11-30T08:33:30.824Z,4.56
2023-11-30T08:35:57.499Z,4.45
2023-11-30T08:38:24.166Z,4.36
2023-11-30T08:40:50.911Z,4.45
2023-11-30T08:43:17.773Z,4.54
2023-11-30T08:45:45.373Z,4.47
2023-11-30T08:48:12.536Z,4.20
2023-11-30T08:50:39.819Z,4.43
2023-11-30T08:53:09.737Z,4.61
2023-11-30T08:55:36.601Z,4.69
2023-11-30T08:58:05.233Z,4.66
2023-11-30T09:00:31.982Z,4.45
2023-11-30T09:02:58.878Z,4.51
2023-11-30T09:05:25.622Z,4.27
2023-11-30T09:07:52.476Z,4.39
2023-11-30T09:10:19.162Z,4.63
2023-11-30T09:12:45.930Z,4.62
2023-11-30T09:15:13.892Z,4.51
2023-11-30T09:17:43.514Z,4.46
2023-11-30T09:20:10.254Z,4.57
2023-11-30T09:22:37.041Z,4.54
2023-11-30T09:25:03.774Z,4.77
2023-11-30T09:27:30.530Z,4.87
2023-11-30T09:29:57.290Z,4.53
2023-11-30T09:32:23.964Z,4.74
2023-11-30T09:34:51.620Z,4.40
2023-11-30T09:37:18.299Z,4.59
2023-11-30T09:39:45.228Z,4.43
2023-11-30T09:42:12.208Z,4.55
2023-11-30T09:44:40.160Z,4.73
2023-11-30T09:47:08.143Z,4.69
2023-11-30T09:49:34.836Z,4.88
2023-11-30T09:52:01.686Z,4.84
2023-11-30T09:54:28.560Z,4.77
2023-11-30T09:56:55.490Z,5.15
2023-11-30T09:59:22.368Z,5.12
2023-11-30T10:01:50.374Z,4.97
2023-11-30T10:04:17.344Z,4.55
2023-11-30T10:06:44.319Z,4.55
2023-11-30T10:09:11.052Z,4.83
2023-11-30T10:11:37.830Z,4.98
2023-11-30T10:14:04.580Z,5.02
2023-11-30T10:16:31.286Z,5.20
2023-11-30T10:18:58.183Z,4.92
2023-11-30T10:21:24.976Z,5.11
2023-11-30T10:23:51.701Z,4.75
2023-11-30T10:26:18.445Z,4.94
2023-11-30T10:28:45.087Z,5.11
2023-11-30T10:31:11.834Z,5.29
2023-11-30T10:33:38.917Z,5.41
2023-11-30T10:36:07.758Z,5.41
2023-11-30T10:38:35.677Z,5.29
2023-11-30T10:41:03.607Z,5.35
2023-11-30T10:43:30.389Z,5.25
2023-11-30T10:45:57.061Z,5.25
2023-11-30T10:48:25.176Z,5.28
2023-11-30T10:50:53.321Z,5.46
2023-11-30T10:53:20.036Z,5.63
2023-11-30T10:55:46.827Z,5.46
2023-11-30T10:58:16.750Z,5.56
2023-11-30T11:00:46.830Z,5.52
2023-11-30T11:03:16.757Z,5.25
2023-11-30T11:05:43.690Z,5.24
2023-11-30T11:08:12.627Z,5.32
2023-11-30T11:10:39.388Z,5.43
2023-11-30T11:13:06.279Z,5.41
2023-11-30T11:15:33.315Z,5.17
2023-11-30T11:18:00.315Z,5.06
2023-11-30T11:20:27.250Z,5.31
2023-11-30T11:22:54.016Z,5.24
2023-11-30T11:25:20.656Z,5.28
2023-11-30T11:27:47.367Z,5.13
2023-11-30T11:30:14.238Z,5.29
2023-11-30T11:32:41.020Z,5.19
2023-11-30T11:35:07.804Z,5.19
2023-11-30T11:37:34.509Z,5.23
2023-11-30T11:40:01.290Z,4.91
2023-11-30T11:42:27.980Z,5.04
2023-11-30T11:44:58.584Z,5.05
2023-11-30T11:47:25.299Z,5.12
2023-11-30T11:49:51.971Z,5.20
2023-11-30T11:52:21.198Z,5.47
2023-11-30T11:54:47.972Z,5.57
2023-11-30T11:57:18.953Z,5.50
2023-11-30T11:59:45.677Z,5.46
2023-11-30T12:02:12.400Z,5.38
2023-11-30T12:05:25.738Z,5.18
2023-11-30T12:07:28.166Z,5.33
2023-11-30T12:09:59.131Z,5.62
2023-11-30T12:12:25.881Z,5.41
2023-11-30T12:14:52.589Z,5.52
2023-11-30T12:17:21.781Z,5.49
2023-11-30T12:19:48.464Z,5.29
2023-11-30T12:22:15.118Z,5.43
2023-11-30T12:24:43.121Z,5.40
2023-11-30T12:27:09.852Z,5.44
2023-11-30T12:29:38.750Z,5.25
2023-11-30T12:32:07.341Z,5.34
2023-11-30T12:34:34.171Z,5.50
2023-11-30T12:37:00.935Z,5.43
2023-11-30T12:39:27.932Z,5.41
2023-11-30T12:41:54.738Z,5.31
2023-11-30T12:44:21.428Z,5.26
2023-11-30T12:46:48.144Z,5.23
2023-11-30T12:49:14.984Z,5.02
2023-11-30T12:51:41.643Z,5.01
2023-11-30T12:54:08.451Z,5.24
2023-11-30T12:56:35.547Z,5.40
2023-11-30T12:59:02.326Z,5.53
2023-11-30T13:01:29.021Z,5.61
2023-11-30T13:03:55.866Z,5.72
2023-11-30T13:06:22.676Z,5.44
2023-11-30T13:08:49.737Z,5.61
2023-11-30T13:11:16.383Z,5.68
2023-11-30T13:13:47.379Z,5.73
2023-11-30T13:16:14.557Z,5.80
2023-11-30T13:18:41.436Z,5.81
2023-11-30T13:21:08.278Z,5.92
2023-11-30T13:23:34.943Z,6.07
2023-11-30T13:26:01.630Z,5.93
2023-11-30T13:28:35.475Z,5.89
2023-11-30T13:31:07.231Z,5.88
2023-11-30T13:33:34.002Z,5.76
2023-11-30T13:36:00.820Z,5.82
2023-11-30T13:38:27.534Z,5.64
2023-11-30T13:40:54.180Z,5.77
2023-11-30T13:43:20.856Z,5.60
2023-11-30T13:45:48.790Z,5.66
2023-11-30T13:48:15.474Z,5.69
2023-11-30T13:50:52.582Z,5.57
2023-11-30T13:53:23.221Z,5.64
2023-11-30T13:55:49.913Z,5.57
2023-11-30T13:58:16.771Z,5.59
2023-11-30T14:00:45.049Z,5.54
2023-11-30T14:03:11.799Z,5.71
2023-11-30T14:05:38.569Z,5.90
2023-11-30T14:08:05.241Z,5.92
2023-11-30T14:10:32.112Z,5.98
2023-11-30T14:12:58.951Z,5.91
2023-11-30T14:15:25.837Z,5.95
2023-11-30T14:17:52.637Z,5.84
2023-11-30T14:20:21.741Z,5.95
2023-11-30T14:22:48.426Z,6.04
2023-11-30T14:25:17.701Z,6.10
2023-11-30T14:27:44.533Z,5.94
2023-11-30T14:30:12.977Z,5.91
2023-11-30T14:32:39.752Z,5.92
2023-11-30T14:35:06.536Z,5.90
2023-11-30T14:37:33.233Z,5.82
2023-11-30T14:39:59.924Z,6.01
2023-11-30T14:42:43.299Z,5.94
2023-11-30T14:45:12.429Z,5.93
2023-11-30T14:47:40.152Z,6.02
2023-11-30T14:50:08.990Z,6.17
2023-11-30T14:52:35.725Z,6.06
2023-11-30T14:55:02.507Z,5.99
2023-11-30T14:57:29.193Z,6.04
2023-11-30T14:59:56.009Z,5.96
2023-11-30T15:02:22.764Z,5.87
2023-11-30T15:04:50.703Z,5.84
2023-11-30T15:07:17.350Z,5.88
2023-11-30T15:09:46.864Z,5.75
2023-11-30T15:12:13.670Z,5.76
2023-11-30T15:14:40.823Z,5.46
2023-11-30T15:17:11.132Z,5.61
2023-11-30T15:19:39.385Z,5.32
2023-11-30T15:22:06.391Z,5.37
2023-11-30T15:24:33.119Z,5.51
2023-11-30T15:26:59.921Z,5.66
2023-11-30T15:29:27.793Z,5.53
2023-11-30T15:31:54.478Z,5.54
2023-11-30T15:34:21.208Z,5.53
2023-11-30T15:36:47.894Z,5.47
2023-11-30T15:39:14.726Z,5.68
2023-11-30T15:41:41.491Z,5.69
2023-11-30T15:44:08.124Z,5.72
2023-11-30T15:46:34.793Z,5.78
2023-11-30T15:49:01.644Z,5.70
2023-11-30T15:51:28.809Z,5.84
2023-11-30T15:53:55.548Z,5.78
2023-11-30T15:56:22.220Z,5.80
2023-11-30T15:58:48.929Z,5.91
2023-11-30T16:01:15.573Z,5.92
2023-11-30T16:03:42.280Z,5.90
2023-11-30T16:06:08.924Z,5.91
2023-11-30T16:08:35.676Z,5.97
2023-11-30T16:11:02.372Z,5.92
2023-11-30T16:13:30.270Z,5.92
2023-11-30T16:15:58.996Z,6.02
2023-11-30T16:18:25.684Z,6.04
2023-11-30T16:20:52.420Z,6.09
2023-11-30T16:23:19.842Z,6.06
2023-11-30T16:25:46.537Z,5.98
2023-11-30T16:28:13.183Z,5.99
2023-11-30T16:30:39.938Z,5.89
2023-11-30T16:33:06.656Z,5.82
2023-11-30T16:35:34.479Z,5.62
2023-11-30T16:38:04.920Z,5.77
2023-11-30T16:40:31.652Z,5.76
2023-11-30T16:42:58.417Z,5.75
2023-11-30T16:45:26.099Z,5.83
2023-11-30T16:47:52.921Z,5.76
2023-11-30T16:50:19.799Z,5.72
2023-11-30T16:52:46.473Z,5.56
2023-11-30T16:55:13.120Z,5.46
2023-11-30T16:57:39.974Z,5.56
2023-11-30T17:00:06.752Z,5.57
2023-11-30T17:02:33.541Z,5.66
2023-11-30T17:05:02.974Z,5.70
2023-11-30T17:07:29.696Z,5.57
2023-11-30T17:09:56.642Z,5.50
2023-11-30T17:12:25.236Z,5.65
2023-11-30T17:14:53.183Z,5.85
2023-11-30T17:17:19.893Z,6.09
2023-11-30T17:19:46.601Z,5.90
2023-11-30T17:22:13.378Z,5.86
2023-11-30T17:24:40.283Z,5.77
2023-11-30T17:27:11.366Z,5.84
2023-11-30T17:29:39.384Z,5.75
2023-11-30T17:32:06.232Z,5.87
2023-11-30T17:34:33.318Z,5.88
2023-11-30T17:37:00.194Z,6.01
2023-11-30T17:39:28.113Z,6.01
2023-11-30T17:42:00.970Z,5.92
2023-11-30T17:44:27.907Z,5.84
2023-11-30T17:46:54.778Z,5.94
2023-11-30T17:49:21.621Z,5.80
2023-11-30T17:51:48.490Z,5.68
2023-11-30T17:54:15.311Z,5.61
2023-11-30T17:56:44.761Z,5.24
2023-11-30T17:59:11.484Z,5.06
2023-11-30T18:01:38.342Z,5.12
2023-11-30T18:04:05.102Z,5.07
2023-11-30T18:06:31.811Z,5.04
2023-11-30T18:08:58.582Z,5.23
2023-11-30T18:11:26.456Z,5.24
2023-11-30T18:13:53.221Z,5.56
2023-11-30T18:16:19.952Z,5.66
2023-11-30T18:18:46.789Z,5.88
2023-11-30T18:21:13.537Z,5.90
2023-11-30T18:23:40.220Z,5.83
2023-11-30T18:26:06.862Z,5.98
2023-11-30T18:28:33.658Z,5.85
2023-11-30T18:31:11.882Z,6.07
2023-11-30T18:33:46.743Z,6.10
2023-11-30T18:36:13.484Z,5.94
2023-11-30T18:38:46.926Z,5.97
2023-11-30T18:41:17.149Z,5.98
2023-11-30T18:43:44.984Z,5.99
2023-11-30T18:46:11.696Z,6.09
2023-11-30T18:48:38.409Z,6.20
2023-11-30T18:51:05.143Z,6.09
2023-11-30T18:53:31.742Z,6.08
2023-11-30T18:56:01.851Z,6.02
2023-11-30T18:58:28.777Z,6.01
2023-11-30T19:01:00.021Z,6.10
2023-11-30T19:03:27.091Z,6.15
2023-11-30T19:05:54.391Z,6.11
2023-11-30T19:08:21.140Z,6.16
2023-11-30T19:10:47.736Z,6.03
2023-11-30T19:13:14.338Z,6.10
2023-11-30T19:15:41.141Z,6.07
2023-11-30T19:18:08.442Z,5.98
2023-11-30T19:20:35.145Z,6.18
2023-11-30T19:23:01.801Z,6.28
2023-11-30T19:25:28.541Z,6.19
2023-11-30T19:27:55.226Z,6.22
2023-11-30T19:30:22.202Z,6.26
2023-11-30T19:32:49.121Z,6.14
2023-11-30T19:35:16.029Z,6.16
2023-11-30T19:37:42.652Z,6.21
2023-11-30T19:40:09.438Z,6.13
2023-11-30T19:42:40.184Z,6.22
2023-11-30T19:45:07.184Z,6.18
2023-11-30T19:47:33.960Z,6.28
2023-11-30T19:50:00.719Z,6.38
2023-11-30T19:52:27.406Z,6.15
2023-11-30T19:54:54.072Z,6.25
2023-11-30T19:57:20.767Z,6.18
2023-11-30T19:59:48.585Z,6.16
2023-11-30T20:02:15.237Z,6.17
2023-11-30T20:04:45.248Z,6.23
2023-11-30T20:07:15.234Z,6.32
2023-11-30T20:09:45.243Z,6.47
2023-11-30T20:12:14.207Z,6.26
2023-11-30T20:14:41.118Z,6.32
2023-11-30T20:17:08.061Z,6.43
2023-11-30T20:19:45.216Z,6.33
2023-11-30T20:22:15.133Z,6.04
2023-11-30T20:24:43.306Z,6.13
2023-11-30T20:27:13.277Z,6.25
2023-11-30T20:29:40.155Z,6.23
2023-11-30T20:32:06.982Z,6.30
2023-11-30T20:34:33.861Z,6.28
2023-11-30T20:37:03.783Z,6.23
2023-11-30T20:39:30.740Z,6.04
2023-11-30T20:42:00.685Z,5.90
2023-11-30T20:44:27.588Z,5.88
2023-11-30T20:46:54.441Z,6.03
2023-11-30T20:49:24.432Z,5.90
2023-11-30T20:51:51.279Z,6.11
2023-11-30T20:54:18.105Z,6.19
2023-11-30T20:56:44.809Z,6.23
2023-11-30T20:59:11.496Z,6.21
2023-11-30T21:01:40.943Z,6.35
2023-11-30T21:04:07.971Z,6.47
2023-11-30T21:06:40.870Z,6.49
2023-11-30T21:09:07.611Z,6.58
2023-11-30T21:11:34.393Z,6.52
2023-11-30T21:14:01.141Z,6.55
2023-11-30T21:16:27.850Z,6.59
2023-11-30T21:18:54.828Z,6.64
2023-11-30T21:21:21.650Z,6.64
2023-11-30T21:23:48.396Z,6.62
2023-11-30T21:26:15.182Z,6.52
2023-11-30T21:28:41.956Z,6.55
2023-11-30T21:31:08.755Z,6.54
2023-11-30T21:33:35.652Z,6.33
2023-11-30T21:36:02.418Z,6.48
2023-11-30T21:38:29.055Z,6.46
2023-11-30T21:40:55.726Z,6.61
2023-11-30T21:43:22.421Z,6.54
2023-11-30T21:45:49.099Z,6.35
2023-11-30T21:48:15.968Z,6.48
2023-11-30T21:50:42.689Z,6.61
2023-11-30T21:53:09.500Z,6.51
2023-11-30T21:55:36.489Z,6.69
2023-11-30T21:58:03.545Z,6.49
2023-11-30T22:00:30.347Z,6.53
2023-11-30T22:02:57.315Z,6.47
2023-11-30T22:05:30.686Z,6.54
2023-11-30T22:08:02.981Z,6.54
2023-11-30T22:10:29.725Z,6.52
2023-11-30T22:12:56.535Z,6.60
2023-11-30T22:15:23.300Z,6.62
2023-11-30T22:17:50.057Z,6.51
2023-11-30T22:20:16.792Z,6.43
2023-11-30T22:22:43.539Z,6.51
2023-11-30T22:25:10.201Z,6.52
2023-11-30T22:27:37.030Z,6.63
2023-11-30T22:30:03.739Z,6.72
2023-11-30T22:32:30.566Z,6.69
2023-11-30T22:34:57.335Z,6.67
2023-11-30T22:37:24.143Z,6.67
2023-11-30T22:39:51.039Z,6.63
2023-11-30T22:42:17.801Z,6.67
2023-11-30T22:44:44.506Z,6.80
2023-11-30T22:47:11.121Z,6.67
2023-11-30T22:49:38.064Z,6.74
2023-11-30T22:52:04.804Z,6.82
2023-11-30T22:54:31.533Z,6.76
2023-11-30T22:56:58.265Z,6.70
2023-11-30T22:59:25.175Z,6.72
2023-11-30T23:01:52.236Z,6.82
2023-11-30T23:04:19.471Z,6.77
2023-11-30T23:06:46.319Z,6.86
2023-11-30T23:09:12.978Z,6.73
2023-11-30T23:11:39.643Z,6.72
2023-11-30T23:14:06.312Z,6.75
2023-11-30T23:16:33.043Z,6.66
2023-11-30T23:18:59.787Z,6.60
2023-11-30T23:21:26.429Z,6.82
2023-11-30T23:23:53.087Z,6.93
2023-11-30T23:26:19.775Z,6.85
2023-11-30T23:28:46.351Z,6.65
2023-11-30T23:31:13.069Z,6.71
2023-11-30T23:33:39.848Z,6.77
2023-11-30T23:36:06.640Z,6.83
2023-11-30T23:38:33.337Z,6.62
2023-11-30T23:41:00.022Z,6.61
2023-11-30T23:43:26.641Z,6.60
2023-11-30T23:45:58.082Z,6.54
2023-11-30T23:48:24.913Z,6.58
2023-11-30T23:50:54.463Z,6.57
2023-11-30T23:53:21.316Z,6.73
2023-11-30T23:55:50.541Z,6.76
2023-11-30T23:58:17.795Z,6.77
